Time;durP1;ratioP1;P1;durP2;ratioP2;P2;SDS_P1;SDS_P2;PMS_P1;PMS_P2;Temp;Humidity;BMP_temperature;BMP_pressure;BME280_temperature;BME280_humidity;BME280_pressure;Samples;Min_cycle;Max_cycle;Signal;HPM_P1;HPM_P2
2023/01/13 00:01:53;;;;;;;;;0.00;0.00;;;;;;;;5044958;28;63540;-87
2023/01/13 00:04:20;;;;;;;;;1.00;0.00;;;;;;;;5045099;28;62209;-87
2023/01/13 00:06:45;;;;;;;;;1.00;0.00;;;;;;;;5063430;28;61683;-87
2023/01/13 00:09:11;;;;;;;;;0.00;0.00;;;;;;;;5064005;28;61807;-87
2023/01/13 00:11:36;;;;;;;;;0.00;0.00;;;;;;;;5044524;28;64238;-87
2023/01/13 00:14:01;;;;;;;;;0.00;0.00;;;;;;;;5044702;28;62151;-87
2023/01/13 00:16:26;;;;;;;;;0.00;0.00;;;;;;;;5045462;28;62001;-87
2023/01/13 00:18:52;;;;;;;;;0.00;0.00;;;;;;;;5044619;28;61851;-87
2023/01/13 00:21:18;;;;;;;;;0.00;0.00;;;;;;;;5062897;28;61892;-86
2023/01/13 00:23:44;;;;;;;;;0.00;0.00;;;;;;;;5062850;28;61688;-87
2023/01/13 00:26:17;;;;;;;;;0.75;0.00;;;;;;;;5061846;28;62365;-87
2023/01/13 00:28:43;;;;;;;;;0.00;0.00;;;;;;;;5044904;28;61764;-87
2023/01/13 00:31:09;;;;;;;;;2.00;0.00;;;;;;;;5062638;28;63399;-87
2023/01/13 00:33:35;;;;;;;;;0.00;0.00;;;;;;;;5062894;28;62380;-87
2023/01/13 00:36:01;;;;;;;;;0.25;0.00;;;;;;;;5063221;28;61807;-87
2023/01/13 00:38:27;;;;;;;;;0.00;0.00;;;;;;;;5045260;28;61809;-87
2023/01/13 00:41:00;;;;;;;;;0.00;0.00;;;;;;;;5072142;28;61795;-87
2023/01/13 00:43:26;;;;;;;;;0.50;0.00;;;;;;;;5064619;28;62194;-87
2023/01/13 00:45:52;;;;;;;;;0.00;0.00;;;;;;;;5064948;28;61999;-87
2023/01/13 00:48:18;;;;;;;;;0.00;0.00;;;;;;;;5083270;28;62017;-87
2023/01/13 00:50:44;;;;;;;;;0.00;0.00;;;;;;;;5081215;28;61951;-87
2023/01/13 00:53:09;;;;;;;;;0.00;0.00;;;;;;;;5064806;28;61895;-87
2023/01/13 00:55:34;;;;;;;;;0.00;0.00;;;;;;;;5082897;28;61771;-87
2023/01/13 00:58:02;;;;;;;;;0.00;0.00;;;;;;;;5064642;28;61774;-87
2023/01/13 01:00:34;;;;;;;;;0.00;0.00;;;;;;;;5064329;28;63886;-87
2023/01/13 01:02:59;;;;;;;;;0.50;0.00;;;;;;;;5082475;28;61987;-86
2023/01/13 01:05:25;;;;;;;;;0.00;0.00;;;;;;;;5083040;28;62006;-87
2023/01/13 01:07:50;;;;;;;;;0.00;0.00;;;;;;;;5064939;28;61776;-86
2023/01/13 01:10:15;;;;;;;;;1.00;0.00;;;;;;;;5064119;28;65233;-87
2023/01/13 01:12:41;;;;;;;;;0.00;0.00;;;;;;;;5064339;28;61999;-87
2023/01/13 01:15:08;;;;;;;;;0.00;0.00;;;;;;;;5064635;28;61879;-86
2023/01/13 01:17:34;;;;;;;;;0.00;0.00;;;;;;;;5083017;28;61723;-86
2023/01/13 01:19:59;;;;;;;;;0.00;0.00;;;;;;;;5063348;28;64787;-86
2023/01/13 01:22:24;;;;;;;;;0.00;0.00;;;;;;;;5064538;28;62089;-87
2023/01/13 01:24:50;;;;;;;;;0.00;0.00;;;;;;;;5082704;28;62024;-86
2023/01/13 01:27:15;;;;;;;;;0.00;0.00;;;;;;;;5082655;28;62041;-87
2023/01/13 01:29:40;;;;;;;;;0.00;0.00;;;;;;;;5082312;28;62671;-87
2023/01/13 01:32:05;;;;;;;;;0.00;0.00;;;;;;;;5064504;28;61858;-87
2023/01/13 01:34:31;;;;;;;;;0.00;0.00;;;;;;;;5063877;28;61865;-87
2023/01/13 01:36:56;;;;;;;;;1.50;0.00;;;;;;;;5064322;28;61835;-87
2023/01/13 01:39:21;;;;;;;;;0.00;0.00;;;;;;;;5082096;28;62074;-87
2023/01/13 01:44:51;;;;;;;;;0.00;0.00;;;;;;;;5082904;28;61819;-86
2023/01/13 01:47:17;;;;;;;;;1.00;0.00;;;;;;;;5064529;28;61789;-87
2023/01/13 01:49:43;;;;;;;;;0.00;0.00;;;;;;;;5062727;28;63742;-87
2023/01/13 01:52:18;;;;;;;;;0.00;0.00;;;;;;;;5082523;28;61950;-88
2023/01/13 01:54:46;;;;;;;;;0.00;0.00;;;;;;;;5082055;28;61883;-87
2023/01/13 01:57:14;;;;;;;;;0.00;0.00;;;;;;;;5064078;28;62075;-87
2023/01/13 01:59:40;;;;;;;;;1.00;0.00;;;;;;;;5063548;28;63754;-88
2023/01/13 02:02:06;;;;;;;;;1.00;0.00;;;;;;;;5066963;28;61845;-87
2023/01/13 02:04:33;;;;;;;;;2.75;0.00;;;;;;;;5067582;28;62005;-87
2023/01/13 02:06:59;;;;;;;;;1.25;0.00;;;;;;;;5067817;28;62023;-87
2023/01/13 02:09:25;;;;;;;;;1.00;0.00;;;;;;;;5066291;28;63590;-87
2023/01/13 02:14:36;;;;;;;;;0.00;0.00;;;;;;;;5086028;28;61806;-87
2023/01/13 02:17:07;;;;;;;;;0.50;0.00;;;;;;;;5067441;28;62141;-87
2023/01/13 02:19:50;;;;;;;;;0.00;0.00;;;;;;;;5066100;28;65258;-87
2023/01/13 02:22:33;;;;;;;;;0.00;0.00;;;;;;;;5067322;28;62102;-87
2023/01/13 02:25:12;;;;;;;;;1.00;0.25;;;;;;;;5066781;28;61823;-88
2023/01/13 02:27:56;;;;;;;;;1.50;0.50;;;;;;;;5067651;28;62063;-87
2023/01/13 02:33:14;;;;;;;;;1.00;0.00;;;;;;;;5084793;28;62016;-87
2023/01/13 02:35:39;;;;;;;;;0.00;0.00;;;;;;;;5067076;28;62109;-87
2023/01/13 02:38:06;;;;;;;;;1.00;0.00;;;;;;;;5066839;28;62022;-87
2023/01/13 02:40:35;;;;;;;;;3.50;0.00;;;;;;;;5084923;28;61889;-87
2023/01/13 02:46:00;;;;;;;;;3.25;0.00;;;;;;;;5085509;28;61813;-88
2023/01/13 02:48:27;;;;;;;;;0.00;0.00;;;;;;;;5085219;28;61900;-88
2023/01/13 02:50:56;;;;;;;;;1.25;0.00;;;;;;;;5066132;28;64951;-88
2023/01/13 02:53:44;;;;;;;;;1.00;0.00;;;;;;;;5084787;28;61904;-88
2023/01/13 02:56:12;;;;;;;;;0.00;0.00;;;;;;;;5060939;28;62080;-87
2023/01/13 02:58:39;;;;;;;;;0.00;0.00;;;;;;;;5066963;28;61738;-87
2023/01/13 03:01:04;;;;;;;;;1.00;0.00;;;;;;;;5084522;28;62097;-88
2023/01/13 03:03:29;;;;;;;;;0.00;0.00;;;;;;;;5066144;28;62017;-88
2023/01/13 03:06:02;;;;;;;;;0.50;0.00;;;;;;;;5085183;28;62056;-87
2023/01/13 03:08:38;;;;;;;;;0.00;0.00;;;;;;;;5084864;28;61842;-88
2023/01/13 03:11:08;;;;;;;;;0.00;0.00;;;;;;;;5084226;28;62996;-87
2023/01/13 03:13:51;;;;;;;;;0.00;0.00;;;;;;;;5084242;28;62018;-88
2023/01/13 03:16:16;;;;;;;;;0.00;0.00;;;;;;;;5066292;28;62251;-88
2023/01/13 03:18:51;;;;;;;;;1.25;0.00;;;;;;;;5066014;28;62387;-88
2023/01/13 03:21:23;;;;;;;;;4.00;0.00;;;;;;;;5065624;28;63991;-88
2023/01/13 03:23:48;;;;;;;;;0.00;0.00;;;;;;;;5066536;28;61800;-88
2023/01/13 03:26:13;;;;;;;;;1.75;0.00;;;;;;;;5066293;28;61816;-88
2023/01/13 03:28:45;;;;;;;;;0.00;0.00;;;;;;;;5066591;28;61712;-88
2023/01/13 03:31:17;;;;;;;;;0.50;0.00;;;;;;;;5065587;28;63774;-88
2023/01/13 03:33:46;;;;;;;;;0.00;0.00;;;;;;;;5084014;28;61939;-87
2023/01/13 03:36:12;;;;;;;;;0.75;0.00;;;;;;;;5083975;28;61787;-87
2023/01/13 03:38:43;;;;;;;;;0.75;0.00;;;;;;;;5084704;28;62060;-88
2023/01/13 03:41:27;;;;;;;;;2.75;0.00;;;;;;;;5083863;28;62003;-89
2023/01/13 03:46:49;;;;;;;;;1.75;1.00;;;;;;;;5084396;28;61868;-89
2023/01/13 03:49:18;;;;;;;;;0.75;0.75;;;;;;;;5065413;28;62079;-89
2023/01/13 03:51:46;;;;;;;;;0.00;0.00;;;;;;;;5065217;28;64133;-87
2023/01/13 03:54:13;;;;;;;;;0.00;0.00;;;;;;;;5075669;28;61912;-88
2023/01/13 03:56:38;;;;;;;;;0.00;0.00;;;;;;;;5045583;28;61791;-88
2023/01/13 03:59:05;;;;;;;;;2.00;0.00;;;;;;;;5064057;28;61711;-88
2023/01/13 04:01:31;;;;;;;;;1.25;0.25;;;;;;;;5063202;28;61890;-87
2023/01/13 04:03:59;;;;;;;;;2.75;0.00;;;;;;;;5063554;28;61994;-88
2023/01/13 04:06:37;;;;;;;;;0.00;0.00;;;;;;;;5045099;28;61754;-88
2023/01/13 04:09:07;;;;;;;;;1.00;0.00;;;;;;;;5063854;28;61768;-89
2023/01/13 04:11:36;;;;;;;;;0.00;0.00;;;;;;;;5045009;28;63880;-89
2023/01/13 04:14:02;;;;;;;;;1.75;0.00;;;;;;;;5045500;28;62034;-88
2023/01/13 04:16:28;;;;;;;;;1.00;1.00;;;;;;;;5063667;28;61898;-88
2023/01/13 04:18:53;;;;;;;;;0.75;0.00;;;;;;;;5044678;28;62223;-88
2023/01/13 04:21:19;;;;;;;;;0.00;0.00;;;;;;;;5044367;28;63698;-89
2023/01/13 04:23:44;;;;;;;;;1.00;1.00;;;;;;;;5044662;28;61753;-89
2023/01/13 04:26:10;;;;;;;;;0.00;0.00;;;;;;;;5045063;28;61961;-88
2023/01/13 04:28:35;;;;;;;;;0.00;0.00;;;;;;;;5045519;28;61661;-89
2023/01/13 04:31:00;;;;;;;;;1.00;0.00;;;;;;;;5062625;28;61950;-88
2023/01/13 04:33:25;;;;;;;;;0.00;0.00;;;;;;;;5063038;28;62048;-89
2023/01/13 04:35:51;;;;;;;;;0.00;0.00;;;;;;;;5063134;28;61804;-89
2023/01/13 04:38:18;;;;;;;;;0.00;0.00;;;;;;;;5045455;28;61733;-89
2023/01/13 04:40:43;;;;;;;;;0.00;0.00;;;;;;;;5044311;28;63765;-89
2023/01/13 04:43:08;;;;;;;;;1.00;0.00;;;;;;;;5045095;28;61949;-88
2023/01/13 04:45:34;;;;;;;;;0.00;0.00;;;;;;;;5063014;28;61768;-89
2023/01/13 04:47:59;;;;;;;;;0.25;0.00;;;;;;;;5045081;28;61931;-89
2023/01/13 04:50:24;;;;;;;;;0.00;0.00;;;;;;;;5061429;28;61946;-89
2023/01/13 04:52:50;;;;;;;;;0.00;0.00;;;;;;;;5044852;28;61906;-88
2023/01/13 04:55:20;;;;;;;;;0.00;0.00;;;;;;;;5062221;28;61772;-88
2023/01/13 04:57:45;;;;;;;;;0.75;0.00;;;;;;;;5083507;28;61993;-89
2023/01/13 05:00:12;;;;;;;;;0.00;0.00;;;;;;;;5064342;28;64734;-88
2023/01/13 05:02:37;;;;;;;;;0.00;0.00;;;;;;;;5064924;28;61935;-88
2023/01/13 05:05:03;;;;;;;;;0.00;0.00;;;;;;;;5064122;28;62231;-88
2023/01/13 05:07:29;;;;;;;;;0.75;0.75;;;;;;;;5064968;28;61728;-89
2023/01/13 05:09:54;;;;;;;;;0.00;0.00;;;;;;;;5064422;28;63800;-88
2023/01/13 05:17:48;;;;;;;;;0.00;0.00;;;;;;;;5082897;28;61727;-88
2023/01/13 05:20:14;;;;;;;;;0.00;0.00;;;;;;;;5063428;28;64086;-89
2023/01/13 05:25:24;;;;;;;;;3.50;0.00;;;;;;;;5083254;28;61794;-89
2023/01/13 05:27:57;;;;;;;;;1.50;0.00;;;;;;;;5064818;28;61924;-89
2023/01/13 05:30:35;;;;;;;;;0.00;0.00;;;;;;;;5064138;28;64004;-88
2023/01/13 05:33:00;;;;;;;;;0.00;0.00;;;;;;;;5082027;28;61831;-88
2023/01/13 05:35:25;;;;;;;;;0.75;0.00;;;;;;;;5083176;28;61820;-89
2023/01/13 05:37:50;;;;;;;;;0.00;0.00;;;;;;;;5068390;28;61920;-88
2023/01/13 05:43:21;;;;;;;;;0.00;0.00;;;;;;;;5086257;28;61782;-89
2023/01/13 05:45:47;;;;;;;;;0.00;0.00;;;;;;;;5068118;28;61777;-89
2023/01/13 05:48:13;;;;;;;;;1.50;0.75;;;;;;;;5085773;28;61973;-88
2023/01/13 05:50:38;;;;;;;;;2.00;0.75;;;;;;;;5085062;28;61821;-88
2023/01/13 05:53:04;;;;;;;;;0.00;0.00;;;;;;;;5086292;28;61909;-88
2023/01/13 05:55:29;;;;;;;;;2.00;0.50;;;;;;;;5056657;28;62244;-88
2023/01/13 05:57:55;;;;;;;;;0.00;0.00;;;;;;;;5047942;28;62178;-89
2023/01/13 06:00:20;;;;;;;;;2.75;0.75;;;;;;;;5047158;28;63679;-89
2023/01/13 06:02:45;;;;;;;;;3.00;0.00;;;;;;;;5047175;28;61894;-86
2023/01/13 06:05:11;;;;;;;;;1.50;0.00;;;;;;;;5065350;28;62057;-80
2023/01/13 06:07:36;;;;;;;;;0.00;0.00;;;;;;;;5047187;28;61987;-84
2023/01/13 06:10:01;;;;;;;;;1.00;0.00;;;;;;;;5046823;28;63481;-87
2023/01/13 06:12:26;;;;;;;;;1.25;1.25;;;;;;;;5080626;28;62290;-86
2023/01/13 06:14:52;;;;;;;;;0.00;0.00;;;;;;;;5085321;28;61966;-83
2023/01/13 06:17:17;;;;;;;;;0.25;0.25;;;;;;;;5085654;28;61895;-80
2023/01/13 06:19:42;;;;;;;;;1.00;1.00;;;;;;;;5085697;28;61708;-80
2023/01/13 06:22:15;;;;;;;;;0.00;0.00;;;;;;;;5067517;28;62225;-80
2023/01/13 06:24:40;;;;;;;;;1.75;1.00;;;;;;;;5085120;28;61912;-84
2023/01/13 06:27:07;;;;;;;;;1.00;0.00;;;;;;;;5085650;28;61995;-86
2023/01/13 06:29:32;;;;;;;;;1.00;0.75;;;;;;;;5066747;28;63803;-87
2023/01/13 06:32:00;;;;;;;;;3.75;0.00;;;;;;;;5084571;28;61974;-83
2023/01/13 06:34:25;;;;;;;;;2.00;1.00;;;;;;;;5085022;28;61712;-82
2023/01/13 06:36:52;;;;;;;;;0.00;0.00;;;;;;;;5085165;28;62252;-84
2023/01/13 06:39:20;;;;;;;;;3.00;1.00;;;;;;;;5084383;28;61712;-88
2023/01/13 06:44:31;;;;;;;;;0.00;0.00;;;;;;;;5081846;28;61966;-90
2023/01/13 06:46:56;;;;;;;;;1.00;0.00;;;;;;;;5064807;28;62378;-91
2023/01/13 06:49:21;;;;;;;;;1.00;0.00;;;;;;;;5082271;28;61910;-89
2023/01/13 06:51:47;;;;;;;;;0.00;0.00;;;;;;;;5081671;28;63089;-90
2023/01/13 06:54:12;;;;;;;;;0.25;0.00;;;;;;;;5084358;28;61992;-90
2023/01/13 06:56:38;;;;;;;;;1.75;0.25;;;;;;;;5083465;28;61751;-89
2023/01/13 06:59:03;;;;;;;;;1.75;1.00;;;;;;;;5061197;28;64175;-89
2023/01/13 07:01:28;;;;;;;;;1.00;0.00;;;;;;;;5083572;28;62487;-88
2023/01/13 07:03:54;;;;;;;;;2.00;2.00;;;;;;;;5065335;28;62022;-90
2023/01/13 07:06:19;;;;;;;;;1.00;0.00;;;;;;;;5084112;28;62316;-88
2023/01/13 07:08:44;;;;;;;;;0.00;0.00;;;;;;;;5064709;28;64202;-90
2023/01/13 07:11:10;;;;;;;;;1.00;0.00;;;;;;;;5083815;28;61925;-89
2023/01/13 07:16:19;;;;;;;;;1.25;1.00;;;;;;;;5083883;28;61846;-90
2023/01/13 07:18:44;;;;;;;;;4.00;2.00;;;;;;;;5080890;28;61981;-89
2023/01/13 07:21:12;;;;;;;;;0.00;0.00;;;;;;;;5065340;28;62012;-90
2023/01/13 07:23:41;;;;;;;;;0.00;0.00;;;;;;;;5065212;28;61923;-90
2023/01/13 07:26:07;;;;;;;;;1.00;1.00;;;;;;;;5083810;28;62156;-89
2023/01/13 07:28:33;;;;;;;;;3.00;1.00;;;;;;;;5083475;28;61952;-89
2023/01/13 07:30:58;;;;;;;;;4.25;1.00;;;;;;;;5065986;28;61823;-89
2023/01/13 07:33:23;;;;;;;;;4.75;1.00;;;;;;;;5084217;28;61792;-89
2023/01/13 07:35:55;;;;;;;;;2.00;0.25;;;;;;;;5084017;28;61822;-89
2023/01/13 07:38:20;;;;;;;;;0.75;0.50;;;;;;;;5084128;28;61684;-89
2023/01/13 07:40:45;;;;;;;;;1.25;1.25;;;;;;;;5084321;28;61908;-89
2023/01/13 07:45:57;;;;;;;;;2.00;0.00;;;;;;;;5084706;28;61888;-88
2023/01/13 07:48:22;;;;;;;;;3.75;1.00;;;;;;;;5064006;28;64204;-88
2023/01/13 07:50:48;;;;;;;;;3.75;0.25;;;;;;;;5063763;28;62001;-88
2023/01/13 07:53:13;;;;;;;;;0.00;0.00;;;;;;;;5080022;28;62060;-87
2023/01/13 07:55:41;;;;;;;;;12.25;1.00;;;;;;;;5073756;28;61920;-88
2023/01/13 07:58:08;;;;;;;;;2.25;1.00;;;;;;;;5046438;28;64881;-88
2023/01/13 08:00:33;;;;;;;;;1.00;1.00;;;;;;;;5045945;28;61725;-88
2023/01/13 08:02:59;;;;;;;;;2.00;1.00;;;;;;;;5063456;28;61828;-87
2023/01/13 08:05:24;;;;;;;;;1.75;0.00;;;;;;;;5063662;28;61836;-88
2023/01/13 08:07:49;;;;;;;;;5.75;1.75;;;;;;;;5045010;28;63765;-87
2023/01/13 08:10:15;;;;;;;;;1.00;0.00;;;;;;;;5045213;28;62091;-89
2023/01/13 08:15:24;;;;;;;;;0.00;0.00;;;;;;;;5083892;28;61800;-87
2023/01/13 08:17:50;;;;;;;;;2.00;2.00;;;;;;;;5065058;28;64861;-88
2023/01/13 08:20:15;;;;;;;;;3.25;0.00;;;;;;;;5082973;28;61629;-87
2023/01/13 08:22:40;;;;;;;;;1.75;1.00;;;;;;;;5065770;28;62081;-83
2023/01/13 08:25:06;;;;;;;;;2.50;0.25;;;;;;;;5064978;28;62231;-86
2023/01/13 08:27:32;;;;;;;;;1.00;0.00;;;;;;;;5082664;28;62960;-86
2023/01/13 08:29:58;;;;;;;;;0.75;0.00;;;;;;;;5063892;28;61984;-86
2023/01/13 08:32:23;;;;;;;;;1.00;1.00;;;;;;;;5071259;28;61740;-86
2023/01/13 08:34:48;;;;;;;;;1.00;1.00;;;;;;;;5062558;28;61893;-86
2023/01/13 08:37:14;;;;;;;;;2.00;1.00;;;;;;;;5081237;28;62114;-86
2023/01/13 08:39:39;;;;;;;;;0.00;0.00;;;;;;;;5064645;28;62237;-86
2023/01/13 08:42:04;;;;;;;;;3.50;1.00;;;;;;;;5063232;28;62449;-86
2023/01/13 08:44:30;;;;;;;;;3.50;2.00;;;;;;;;5082769;28;62275;-87
2023/01/13 08:46:56;;;;;;;;;5.00;1.50;;;;;;;;5082881;28;61854;-86
2023/01/13 08:49:23;;;;;;;;;2.00;1.00;;;;;;;;5064162;28;62007;-86
2023/01/13 08:51:48;;;;;;;;;1.25;1.25;;;;;;;;5083338;28;61750;-86
2023/01/13 08:54:13;;;;;;;;;4.75;0.50;;;;;;;;5059188;28;62294;-86
2023/01/13 08:56:40;;;;;;;;;1.00;1.00;;;;;;;;5082469;28;61962;-86
2023/01/13 08:59:08;;;;;;;;;1.00;1.00;;;;;;;;5083206;28;61777;-86
2023/01/13 09:01:34;;;;;;;;;3.50;0.75;;;;;;;;5083266;28;62097;-86
2023/01/13 09:03:59;;;;;;;;;3.75;2.00;;;;;;;;5083088;28;61704;-85
2023/01/13 09:06:24;;;;;;;;;1.00;1.00;;;;;;;;5082469;28;61715;-86
2023/01/13 09:08:50;;;;;;;;;0.00;0.00;;;;;;;;5083125;28;61865;-86
2023/01/13 09:14:01;;;;;;;;;0.50;0.50;;;;;;;;5083157;28;61711;-86
2023/01/13 09:16:26;;;;;;;;;4.50;1.50;;;;;;;;5063999;28;64628;-85
2023/01/13 09:18:52;;;;;;;;;2.50;1.00;;;;;;;;5063720;28;61730;-85
2023/01/13 09:21:18;;;;;;;;;5.25;0.25;;;;;;;;5082959;28;61778;-85
2023/01/13 09:23:43;;;;;;;;;1.00;1.00;;;;;;;;5064848;28;61710;-86
2023/01/13 09:26:10;;;;;;;;;1.75;1.00;;;;;;;;5081728;28;62882;-86
2023/01/13 09:28:35;;;;;;;;;1.25;0.00;;;;;;;;5082797;28;61754;-86
2023/01/13 09:31:00;;;;;;;;;3.00;1.25;;;;;;;;5064666;28;61757;-86
2023/01/13 09:36:10;;;;;;;;;2.75;1.75;;;;;;;;5082284;28;62715;-86
2023/01/13 09:38:35;;;;;;;;;1.00;1.00;;;;;;;;5064249;28;62018;-86
2023/01/13 09:41:00;;;;;;;;;3.25;1.00;;;;;;;;5082490;28;61862;-86
2023/01/13 09:49:08;;;;;;;;;1.50;1.50;;;;;;;;5081771;28;61645;-86
2023/01/13 09:51:39;;;;;;;;;4.00;1.50;;;;;;;;5082466;28;61733;-86
2023/01/13 09:54:15;;;;;;;;;2.50;1.00;;;;;;;;5081988;28;62000;-86
2023/01/13 09:56:41;;;;;;;;;1.25;1.00;;;;;;;;5063329;28;63747;-86
2023/01/13 09:59:09;;;;;;;;;0.50;0.25;;;;;;;;5064277;28;62160;-86
2023/01/13 10:01:39;;;;;;;;;5.00;1.75;;;;;;;;5064055;28;61894;-86
2023/01/13 10:04:11;;;;;;;;;3.75;1.75;;;;;;;;5082313;28;61898;-86
2023/01/13 10:06:37;;;;;;;;;3.50;0.50;;;;;;;;5063601;28;64014;-86
2023/01/13 10:09:03;;;;;;;;;2.00;1.00;;;;;;;;5063480;28;62018;-86
2023/01/13 10:14:23;;;;;;;;;1.00;1.00;;;;;;;;5082616;28;61708;-86
2023/01/13 10:16:48;;;;;;;;;1.00;1.00;;;;;;;;5063363;28;63977;-86
2023/01/13 10:19:21;;;;;;;;;1.50;0.75;;;;;;;;5063020;28;61772;-86
2023/01/13 10:22:05;;;;;;;;;2.00;1.00;;;;;;;;5064117;28;61908;-86
2023/01/13 10:24:33;;;;;;;;;1.00;0.00;;;;;;;;5085608;28;62052;-86
2023/01/13 10:27:11;;;;;;;;;1.00;0.00;;;;;;;;5085208;28;61959;-85
2023/01/13 10:29:36;;;;;;;;;2.00;1.00;;;;;;;;5085299;28;61775;-86
2023/01/13 10:32:02;;;;;;;;;1.75;0.75;;;;;;;;5067233;28;62275;-86
2023/01/13 10:34:27;;;;;;;;;0.25;0.00;;;;;;;;5085162;28;62032;-85
2023/01/13 10:36:57;;;;;;;;;0.25;0.25;;;;;;;;5084620;28;63171;-85
2023/01/13 10:39:23;;;;;;;;;0.75;0.00;;;;;;;;5085421;28;61825;-86
2023/01/13 10:41:59;;;;;;;;;0.00;0.00;;;;;;;;5067062;28;61822;-85
2023/01/13 10:44:24;;;;;;;;;2.00;0.50;;;;;;;;5085525;28;61840;-86
2023/01/13 10:46:53;;;;;;;;;3.00;0.00;;;;;;;;5083998;28;61741;-86
2023/01/13 10:49:22;;;;;;;;;2.00;0.50;;;;;;;;5082996;28;62037;-85
2023/01/13 10:51:47;;;;;;;;;2.00;1.00;;;;;;;;5083015;28;61768;-86
2023/01/13 10:54:23;;;;;;;;;2.75;0.00;;;;;;;;5084197;28;62021;-86
2023/01/13 10:56:49;;;;;;;;;1.00;1.00;;;;;;;;5066046;28;63885;-86
2023/01/13 10:59:27;;;;;;;;;1.25;0.00;;;;;;;;5085300;28;61797;-86
2023/01/13 11:01:58;;;;;;;;;1.00;1.00;;;;;;;;5085039;28;61970;-86
2023/01/13 11:04:36;;;;;;;;;2.75;0.00;;;;;;;;5066579;28;61799;-86
2023/01/13 11:07:03;;;;;;;;;3.50;1.00;;;;;;;;5065687;28;63728;-87
2023/01/13 11:09:29;;;;;;;;;1.75;1.00;;;;;;;;5066650;28;62229;-87
2023/01/13 11:11:55;;;;;;;;;2.00;0.75;;;;;;;;5084755;28;62339;-86
2023/01/13 11:14:35;;;;;;;;;3.75;1.25;;;;;;;;5084786;28;61803;-86
2023/01/13 11:17:10;;;;;;;;;1.00;0.00;;;;;;;;5064875;28;61882;-86
2023/01/13 11:19:37;;;;;;;;;1.00;0.00;;;;;;;;5082339;28;62050;-87
2023/01/13 11:22:08;;;;;;;;;2.25;0.00;;;;;;;;5065373;28;61866;-87
2023/01/13 11:24:47;;;;;;;;;2.00;0.25;;;;;;;;5082017;28;61893;-86
2023/01/13 11:27:21;;;;;;;;;0.00;0.00;;;;;;;;5083569;28;62176;-85
2023/01/13 11:29:47;;;;;;;;;2.75;0.00;;;;;;;;5083306;28;62045;-85
2023/01/13 11:32:16;;;;;;;;;2.25;1.00;;;;;;;;5083300;28;61977;-85
2023/01/13 11:34:43;;;;;;;;;1.00;0.00;;;;;;;;5064491;28;61744;-87
2023/01/13 11:37:29;;;;;;;;;1.00;1.00;;;;;;;;5083865;28;61695;-83
2023/01/13 11:40:10;;;;;;;;;1.00;1.00;;;;;;;;5082843;28;61735;-85
2023/01/13 11:42:55;;;;;;;;;2.00;1.00;;;;;;;;5065407;28;61915;-80
2023/01/13 11:45:40;;;;;;;;;0.00;0.00;;;;;;;;5081093;28;61745;-80
2023/01/13 11:48:11;;;;;;;;;0.00;0.00;;;;;;;;5045317;28;64991;-82
2023/01/13 11:50:41;;;;;;;;;0.00;0.00;;;;;;;;5063136;28;61916;-82
2023/01/13 11:53:11;;;;;;;;;0.00;0.00;;;;;;;;5065906;28;61729;-81
2023/01/13 11:56:02;;;;;;;;;3.50;0.00;;;;;;;;5083084;28;61940;-82
2023/01/13 11:58:51;;;;;;;;;2.00;0.00;;;;;;;;4957747;28;62029;-81
2023/01/13 12:01:31;;;;;;;;;1.75;0.75;;;;;;;;4961804;28;61872;-81
2023/01/13 12:03:59;;;;;;;;;4.00;1.00;;;;;;;;4960502;28;61794;-80
2023/01/13 12:06:35;;;;;;;;;0.50;0.50;;;;;;;;4962672;28;62010;-81
2023/01/13 12:09:16;;;;;;;;;1.00;1.00;;;;;;;;4961283;28;62020;-81
2023/01/13 12:14:49;;;;;;;;;1.25;0.00;;;;;;;;4958517;28;61870;-80
2023/01/13 12:17:21;;;;;;;;;2.75;0.00;;;;;;;;4960706;28;61877;-81
2023/01/13 12:19:48;;;;;;;;;1.25;0.50;;;;;;;;4959405;28;64880;-81
2023/01/13 12:22:22;;;;;;;;;2.75;0.75;;;;;;;;4961305;28;61789;-81
2023/01/13 12:25:16;;;;;;;;;2.75;1.00;;;;;;;;4960860;28;61952;-81
2023/01/13 12:27:50;;;;;;;;;0.00;0.00;;;;;;;;4961702;28;61877;-81
2023/01/13 12:30:19;;;;;;;;;1.00;1.00;;;;;;;;4961103;28;64124;-80
2023/01/13 12:32:45;;;;;;;;;0.75;0.75;;;;;;;;4960939;28;61964;-80
2023/01/13 12:35:30;;;;;;;;;2.00;0.00;;;;;;;;5014611;28;61975;-81
2023/01/13 12:37:59;;;;;;;;;1.50;0.00;;;;;;;;5057990;28;62260;-81
2023/01/13 12:40:34;;;;;;;;;5.25;1.00;;;;;;;;5082034;28;63222;-80
2023/01/13 12:45:44;;;;;;;;;0.00;0.00;;;;;;;;5081821;28;61968;-80
2023/01/13 12:48:28;;;;;;;;;0.75;0.00;;;;;;;;5082571;28;61818;-80
2023/01/13 12:50:59;;;;;;;;;2.00;1.00;;;;;;;;5081806;28;62078;-81
2023/01/13 12:53:29;;;;;;;;;2.00;0.00;;;;;;;;5064292;28;61910;-80
2023/01/13 12:56:15;;;;;;;;;1.75;0.00;;;;;;;;5082156;28;61790;-80
2023/01/13 12:58:40;;;;;;;;;2.25;0.25;;;;;;;;5050842;28;61793;-80
2023/01/13 13:01:12;;;;;;;;;2.00;0.25;;;;;;;;5081924;28;61782;-80
2023/01/13 13:03:37;;;;;;;;;1.75;0.00;;;;;;;;5082078;28;61810;-81
2023/01/13 13:06:21;;;;;;;;;3.75;1.00;;;;;;;;5082000;28;62012;-81
2023/01/13 13:09:01;;;;;;;;;0.50;0.00;;;;;;;;5064559;28;62125;-80
2023/01/13 13:14:35;;;;;;;;;3.00;0.00;;;;;;;;5082004;28;62084;-80
2023/01/13 13:17:01;;;;;;;;;3.50;1.00;;;;;;;;5081460;28;61767;-80
2023/01/13 13:19:29;;;;;;;;;0.50;0.50;;;;;;;;5080421;28;61834;-80
2023/01/13 13:22:16;;;;;;;;;0.50;0.00;;;;;;;;5062890;28;64772;-80
2023/01/13 13:24:42;;;;;;;;;2.00;1.00;;;;;;;;5062734;28;62060;-80
2023/01/13 13:27:25;;;;;;;;;1.25;0.00;;;;;;;;5081999;28;61871;-80
2023/01/13 13:29:57;;;;;;;;;0.25;0.00;;;;;;;;5063889;28;61998;-81
2023/01/13 13:32:31;;;;;;;;;3.50;0.75;;;;;;;;5079116;28;61892;-81
2023/01/13 13:35:16;;;;;;;;;1.75;1.75;;;;;;;;5063052;28;62039;-80
2023/01/13 13:49:06;;;;;;;;;2.50;1.50;;;;;;;;5076210;27;61936;-79
2023/01/13 13:51:36;;;;;;;;;0.00;0.00;;;;;;;;5061676;28;61775;-80
2023/01/13 13:54:02;;;;;;;;;1.00;1.00;;;;;;;;5059994;28;63959;-81
2023/01/13 13:56:28;;;;;;;;;3.75;2.25;;;;;;;;5080165;28;62060;-80
2023/01/13 13:58:53;;;;;;;;;2.50;0.75;;;;;;;;5083638;28;62034;-80
2023/01/13 14:01:27;;;;;;;;;1.00;1.00;;;;;;;;5083086;28;61767;-80
2023/01/13 14:04:03;;;;;;;;;1.75;1.00;;;;;;;;5080052;28;61999;-79
2023/01/13 14:06:31;;;;;;;;;2.00;0.25;;;;;;;;5082897;28;62101;-79
2023/01/13 14:08:57;;;;;;;;;2.00;2.00;;;;;;;;5065086;28;61925;-80
2023/01/13 14:11:32;;;;;;;;;2.00;0.00;;;;;;;;5080647;28;61799;-80
2023/01/13 14:14:02;;;;;;;;;2.50;1.00;;;;;;;;5080774;28;62110;-80
2023/01/13 14:16:27;;;;;;;;;0.50;0.50;;;;;;;;5064557;28;61901;-79
2023/01/13 14:18:53;;;;;;;;;1.50;0.00;;;;;;;;5082825;28;61941;-80
2023/01/13 14:21:28;;;;;;;;;1.50;0.50;;;;;;;;5064992;28;62146;-80
2023/01/13 14:23:54;;;;;;;;;3.75;1.00;;;;;;;;5062271;28;64589;-80
2023/01/13 14:26:22;;;;;;;;;4.25;1.00;;;;;;;;5064773;28;62037;-80
2023/01/13 14:28:48;;;;;;;;;0.00;0.00;;;;;;;;5064342;28;61740;-80
2023/01/13 14:31:13;;;;;;;;;0.00;0.00;;;;;;;;5065136;28;61870;-80
2023/01/13 14:33:47;;;;;;;;;1.50;1.50;;;;;;;;5065885;28;63901;-80
2023/01/13 14:36:15;;;;;;;;;0.75;0.25;;;;;;;;5083452;28;61759;-80
2023/01/13 14:38:41;;;;;;;;;0.50;0.00;;;;;;;;5066274;28;61752;-80
2023/01/13 14:41:10;;;;;;;;;2.00;0.50;;;;;;;;5083869;28;61863;-80
2023/01/13 14:43:41;;;;;;;;;2.75;0.75;;;;;;;;5079001;28;63722;-80
2023/01/13 14:46:06;;;;;;;;;1.25;0.25;;;;;;;;5082500;28;62014;-80
2023/01/13 14:48:36;;;;;;;;;1.00;1.00;;;;;;;;5082575;28;61820;-80
2023/01/13 14:51:08;;;;;;;;;1.00;1.00;;;;;;;;5082453;28;61806;-80
2023/01/13 14:53:38;;;;;;;;;1.00;1.00;;;;;;;;5062136;28;63595;-80
2023/01/13 14:56:22;;;;;;;;;0.75;0.00;;;;;;;;5082688;28;61778;-80
2023/01/13 14:58:48;;;;;;;;;1.00;1.00;;;;;;;;5063468;28;61898;-80
2023/01/13 15:01:35;;;;;;;;;3.00;1.00;;;;;;;;5083137;28;61771;-80
2023/01/13 15:04:23;;;;;;;;;7.75;2.75;;;;;;;;5081104;28;62324;-80
2023/01/13 15:06:51;;;;;;;;;1.00;1.00;;;;;;;;5080405;28;62059;-80
2023/01/13 15:09:22;;;;;;;;;0.50;0.50;;;;;;;;5082132;28;61826;-80
2023/01/13 15:11:47;;;;;;;;;0.00;0.00;;;;;;;;5062127;28;61755;-80
2023/01/13 15:14:15;;;;;;;;;2.25;1.00;;;;;;;;5062972;28;64131;-80
2023/01/13 15:16:40;;;;;;;;;3.25;1.00;;;;;;;;5082224;28;61981;-80
2023/01/13 15:19:08;;;;;;;;;6.50;1.75;;;;;;;;5063611;28;61913;-80
2023/01/13 15:21:34;;;;;;;;;1.75;1.00;;;;;;;;5082598;28;61863;-79
2023/01/13 15:23:59;;;;;;;;;2.00;0.50;;;;;;;;5081435;28;61675;-80
2023/01/13 15:26:26;;;;;;;;;1.50;0.00;;;;;;;;5081810;28;61688;-80
2023/01/13 15:28:53;;;;;;;;;0.00;0.00;;;;;;;;5081910;28;61781;-80
2023/01/13 15:31:19;;;;;;;;;1.25;1.00;;;;;;;;5076772;28;63086;-80
2023/01/13 15:33:44;;;;;;;;;0.00;0.00;;;;;;;;5062611;28;63345;-80
2023/01/13 15:36:21;;;;;;;;;0.00;0.00;;;;;;;;5063474;28;62090;-80
2023/01/13 15:38:47;;;;;;;;;1.00;1.00;;;;;;;;5058341;28;61851;-80
2023/01/13 15:41:12;;;;;;;;;1.00;1.00;;;;;;;;5081562;28;61969;-80
2023/01/13 15:46:37;;;;;;;;;0.00;0.00;;;;;;;;5082787;28;61756;-80
2023/01/13 15:49:17;;;;;;;;;2.00;1.00;;;;;;;;5061338;28;61890;-80
2023/01/13 15:51:43;;;;;;;;;1.75;0.00;;;;;;;;5073669;28;61952;-79
2023/01/13 15:54:08;;;;;;;;;8.50;1.00;;;;;;;;5073936;28;62334;-79
2023/01/13 15:56:35;;;;;;;;;1.25;0.25;;;;;;;;5064988;28;61867;-80
2023/01/13 15:59:00;;;;;;;;;2.00;0.25;;;;;;;;5064733;28;62248;-80
2023/01/13 16:01:25;;;;;;;;;0.75;0.75;;;;;;;;5065656;28;61887;-79
2023/01/13 16:03:51;;;;;;;;;2.00;0.00;;;;;;;;5064129;28;63781;-79
2023/01/13 16:06:20;;;;;;;;;3.75;0.50;;;;;;;;5064878;28;62374;-80